Terminal Aerodrome Forecast
Issued by NWS

Home | Current Version | Previous Version | Graphics & Text | Print | Product List | Glossary On
Versions: 1 2 3 4 5 6 7 8 9 10 11 12 13 14 15 16 17 18 19 20 21 22 23 24 25 26 27
000
FTUS41 KCLE 202300
TAFFDY
TAF
KFDY 202340Z 2100/2124 26006KT P6SM SCT015 OVC025
     FM210400 32010KT P6SM OVC015
     FM211400 32012G20KT P6SM SCT015 OVC025
     FM212300 34008KT P6SM OVC035=

USA.gov is the U.S. government's official web portal to all federal, state and local government web resources and services.